<?xml version="1.0" encoding="UTF-8" standalone="no" ?>
<gpx xmlns="http://www.topografix.com/GPX/1/1" xmlns:xsi="http://www.w3.org/2001/XMLSchema-instance" xsi:schemaLocation="http://www.topografix.com/GPX/1/1 http://www.topografix.com/GPX/1/1/gpx.xsd" version="1.1" creator="VisuGPX - https://www.visugpx.com">
  <metadata>
    <name>Norvège</name>
  </metadata>
  <trk>
    <name><![CDATA[Tour d'Europe: étape 043]]></name>
    <trkseg>
      <trkpt lat="64.3001" lon="10.49877">
        <ele>46.180445</ele>
        <time>2020-08-10T07:10:49.418Z</time>
      </trkpt>
      <trkpt lat="64.29931" lon="10.50065">
        <ele>51.39359</ele>
        <time>2020-08-10T08:32:02.739Z</time>
      </trkpt>
      <trkpt lat="64.29887" lon="10.50512">
        <ele>54.383378</ele>
        <time>2020-08-10T08:33:04.718Z</time>
      </trkpt>
      <trkpt lat="64.29758" lon="10.50877">
        <ele>62.314889</ele>
        <time>2020-08-10T08:34:22.756Z</time>
      </trkpt>
      <trkpt lat="64.29634" lon="10.51298">
        <ele>65.948225</ele>
        <time>2020-08-10T08:35:32.727Z</time>
      </trkpt>
      <trkpt lat="64.29457" lon="10.51581">
        <ele>57.911633</ele>
        <time>2020-08-10T08:36:17.716Z</time>
      </trkpt>
      <trkpt lat="64.29302" lon="10.51952">
        <ele>65.578121</ele>
        <time>2020-08-10T08:37:25.731Z</time>
      </trkpt>
      <trkpt lat="64.29231" lon="10.52392">
        <ele>68.396556</ele>
        <time>2020-08-10T08:38:31.780Z</time>
      </trkpt>
      <trkpt lat="64.29159" lon="10.52836">
        <ele>70.529234</ele>
        <time>2020-08-10T08:39:35.727Z</time>
      </trkpt>
      <trkpt lat="64.29092" lon="10.5333">
        <ele>71.633077</ele>
        <time>2020-08-10T08:40:53.722Z</time>
      </trkpt>
      <trkpt lat="64.2918" lon="10.53835">
        <ele>60.467079</ele>
        <time>2020-08-10T08:41:15.763Z</time>
      </trkpt>
      <trkpt lat="64.29145" lon="10.54383">
        <ele>51.328636</ele>
        <time>2020-08-10T08:41:49.720Z</time>
      </trkpt>
      <trkpt lat="64.29117" lon="10.54868">
        <ele>57.523644</ele>
        <time>2020-08-10T08:42:50.711Z</time>
      </trkpt>
      <trkpt lat="64.29074" lon="10.55384">
        <ele>56.423289</ele>
        <time>2020-08-10T08:43:34.719Z</time>
      </trkpt>
      <trkpt lat="64.29026" lon="10.55722">
        <ele>51.528388</ele>
        <time>2020-08-10T08:49:05.716Z</time>
      </trkpt>
      <trkpt lat="64.28922" lon="10.56114">
        <ele>62.137485</ele>
        <time>2020-08-10T08:50:37.730Z</time>
      </trkpt>
      <trkpt lat="64.28808" lon="10.56448">
        <ele>72.897683</ele>
        <time>2020-08-10T08:52:23.746Z</time>
      </trkpt>
      <trkpt lat="64.28824" lon="10.56906">
        <ele>78.142333</ele>
        <time>2020-08-10T08:53:22.720Z</time>
      </trkpt>
      <trkpt lat="64.28679" lon="10.5719">
        <ele>86.64201</ele>
        <time>2020-08-10T08:54:53.719Z</time>
      </trkpt>
      <trkpt lat="64.28498" lon="10.57308">
        <ele>102.718236</ele>
        <time>2020-08-10T08:57:04.733Z</time>
      </trkpt>
      <trkpt lat="64.28323" lon="10.57514">
        <ele>110.09927</ele>
        <time>2020-08-10T08:58:53.733Z</time>
      </trkpt>
      <trkpt lat="64.28113" lon="10.57523">
        <ele>101.691785</ele>
        <time>2020-08-10T08:59:42.750Z</time>
      </trkpt>
      <trkpt lat="64.27937" lon="10.578">
        <ele>104.282445</ele>
        <time>2020-08-10T09:00:39.730Z</time>
      </trkpt>
      <trkpt lat="64.27889" lon="10.58368">
        <ele>102.832847</ele>
        <time>2020-08-10T09:01:11.726Z</time>
      </trkpt>
      <trkpt lat="64.27755" lon="10.58779">
        <ele>99.593336</ele>
        <time>2020-08-10T09:02:08.719Z</time>
      </trkpt>
      <trkpt lat="64.27606" lon="10.5923">
        <ele>89.29316</ele>
        <time>2020-08-10T09:02:59.705Z</time>
      </trkpt>
      <trkpt lat="64.27384" lon="10.59771">
        <ele>80.984798</ele>
        <time>2020-08-10T09:03:41.723Z</time>
      </trkpt>
      <trkpt lat="64.27272" lon="10.6028">
        <ele>78.789478</ele>
        <time>2020-08-10T09:04:15.719Z</time>
      </trkpt>
      <trkpt lat="64.27207" lon="10.60781">
        <ele>75.464783</ele>
        <time>2020-08-10T09:04:56.738Z</time>
      </trkpt>
      <trkpt lat="64.27039" lon="10.61116">
        <ele>72.598023</ele>
        <time>2020-08-10T09:05:42.748Z</time>
      </trkpt>
      <trkpt lat="64.26842" lon="10.61231">
        <ele>79.208861</ele>
        <time>2020-08-10T09:06:33.751Z</time>
      </trkpt>
      <trkpt lat="64.26633" lon="10.61293">
        <ele>79.667478</ele>
        <time>2020-08-10T09:07:40.737Z</time>
      </trkpt>
      <trkpt lat="64.26442" lon="10.61537">
        <ele>75.306732</ele>
        <time>2020-08-10T09:08:21.714Z</time>
      </trkpt>
      <trkpt lat="64.26251" lon="10.61826">
        <ele>80.453234</ele>
        <time>2020-08-10T09:09:14.721Z</time>
      </trkpt>
      <trkpt lat="64.26113" lon="10.62149">
        <ele>86.795635</ele>
        <time>2020-08-10T09:10:38.729Z</time>
      </trkpt>
      <trkpt lat="64.25997" lon="10.62605">
        <ele>81.60544</ele>
        <time>2020-08-10T09:11:25.744Z</time>
      </trkpt>
      <trkpt lat="64.25828" lon="10.62892">
        <ele>77.005282</ele>
        <time>2020-08-10T09:12:08.740Z</time>
      </trkpt>
      <trkpt lat="64.2562" lon="10.62806">
        <ele>86.915271</ele>
        <time>2020-08-10T09:13:45.727Z</time>
      </trkpt>
      <trkpt lat="64.25465" lon="10.63109">
        <ele>87.964129</ele>
        <time>2020-08-10T09:14:57.723Z</time>
      </trkpt>
      <trkpt lat="64.25274" lon="10.63349">
        <ele>85.656417</ele>
        <time>2020-08-10T09:15:57.732Z</time>
      </trkpt>
      <trkpt lat="64.25055" lon="10.6339">
        <ele>85.530576</ele>
        <time>2020-08-10T09:16:57.749Z</time>
      </trkpt>
      <trkpt lat="64.24863" lon="10.63598">
        <ele>86.47351</ele>
        <time>2020-08-10T09:17:57.728Z</time>
      </trkpt>
      <trkpt lat="64.24699" lon="10.63936">
        <ele>88.919825</ele>
        <time>2020-08-10T09:18:59.737Z</time>
      </trkpt>
      <trkpt lat="64.24497" lon="10.64157">
        <ele>96.660934</ele>
        <time>2020-08-10T09:20:15.722Z</time>
      </trkpt>
      <trkpt lat="64.24302" lon="10.6435">
        <ele>104.69926</ele>
        <time>2020-08-10T09:21:33.710Z</time>
      </trkpt>
      <trkpt lat="64.24126" lon="10.64565">
        <ele>111.166962</ele>
        <time>2020-08-10T09:23:13.735Z</time>
      </trkpt>
      <trkpt lat="64.23952" lon="10.64843">
        <ele>109.02741</ele>
        <time>2020-08-10T09:24:19.748Z</time>
      </trkpt>
      <trkpt lat="64.23947" lon="10.65396">
        <ele>103.991475</ele>
        <time>2020-08-10T09:24:59.722Z</time>
      </trkpt>
      <trkpt lat="64.23825" lon="10.65779">
        <ele>107.471492</ele>
        <time>2020-08-10T09:25:57.743Z</time>
      </trkpt>
      <trkpt lat="64.23788" lon="10.66186">
        <ele>118.450565</ele>
        <time>2020-08-10T09:27:38.742Z</time>
      </trkpt>
      <trkpt lat="64.23908" lon="10.66572">
        <ele>117.993618</ele>
        <time>2020-08-10T09:28:32.734Z</time>
      </trkpt>
      <trkpt lat="64.23921" lon="10.67085">
        <ele>113.984383</ele>
        <time>2020-08-10T09:29:22.732Z</time>
      </trkpt>
      <trkpt lat="64.23937" lon="10.67624">
        <ele>114.804849</ele>
        <time>2020-08-10T09:30:16.716Z</time>
      </trkpt>
      <trkpt lat="64.2404" lon="10.68072">
        <ele>114.030532</ele>
        <time>2020-08-10T09:31:03.747Z</time>
      </trkpt>
      <trkpt lat="64.24121" lon="10.68566">
        <ele>114.807037</ele>
        <time>2020-08-10T09:32:06.729Z</time>
      </trkpt>
      <trkpt lat="64.24186" lon="10.6903">
        <ele>115.871248</ele>
        <time>2020-08-10T09:33:16.739Z</time>
      </trkpt>
      <trkpt lat="64.24198" lon="10.69506">
        <ele>114.10299</ele>
        <time>2020-08-10T09:34:01.726Z</time>
      </trkpt>
      <trkpt lat="64.24207" lon="10.70053">
        <ele>113.399622</ele>
        <time>2020-08-10T09:35:00.719Z</time>
      </trkpt>
      <trkpt lat="64.24221" lon="10.70565">
        <ele>116.027433</ele>
        <time>2020-08-10T09:36:00.740Z</time>
      </trkpt>
      <trkpt lat="64.24246" lon="10.71032">
        <ele>117.467526</ele>
        <time>2020-08-10T09:37:02.731Z</time>
      </trkpt>
      <trkpt lat="64.24274" lon="10.71494">
        <ele>126.804658</ele>
        <time>2020-08-10T09:38:43.740Z</time>
      </trkpt>
      <trkpt lat="64.24218" lon="10.71921">
        <ele>141.171122</ele>
        <time>2020-08-10T09:40:56.752Z</time>
      </trkpt>
      <trkpt lat="64.24127" lon="10.72316">
        <ele>161.399911</ele>
        <time>2020-08-10T09:43:19.744Z</time>
      </trkpt>
      <trkpt lat="64.24079" lon="10.72735">
        <ele>176.686944</ele>
        <time>2020-08-10T09:45:42.735Z</time>
      </trkpt>
      <trkpt lat="64.24082" lon="10.73187">
        <ele>183.652487</ele>
        <time>2020-08-10T09:47:43.744Z</time>
      </trkpt>
      <trkpt lat="64.24134" lon="10.73785">
        <ele>173.47403</ele>
        <time>2020-08-10T09:48:29.734Z</time>
      </trkpt>
      <trkpt lat="64.24067" lon="10.74244">
        <ele>164.620787</ele>
        <time>2020-08-10T09:48:51.765Z</time>
      </trkpt>
      <trkpt lat="64.24089" lon="10.74827">
        <ele>157.973814</ele>
        <time>2020-08-10T09:49:31.722Z</time>
      </trkpt>
      <trkpt lat="64.24094" lon="10.75304">
        <ele>165.088576</ele>
        <time>2020-08-10T09:50:43.738Z</time>
      </trkpt>
      <trkpt lat="64.24074" lon="10.75762">
        <ele>173.75734</ele>
        <time>2020-08-10T09:52:22.726Z</time>
      </trkpt>
      <trkpt lat="64.24131" lon="10.76221">
        <ele>175.547078</ele>
        <time>2020-08-10T09:53:25.711Z</time>
      </trkpt>
      <trkpt lat="64.24158" lon="10.76725">
        <ele>177.262675</ele>
        <time>2020-08-10T09:54:43.725Z</time>
      </trkpt>
      <trkpt lat="64.24265" lon="10.77141">
        <ele>181.662305</ele>
        <time>2020-08-10T09:55:59.776Z</time>
      </trkpt>
      <trkpt lat="64.24327" lon="10.77624">
        <ele>182.60928</ele>
        <time>2020-08-10T09:57:15.727Z</time>
      </trkpt>
      <trkpt lat="64.24381" lon="10.78149">
        <ele>184.562374</ele>
        <time>2020-08-10T09:58:13.737Z</time>
      </trkpt>
      <trkpt lat="64.24243" lon="10.78408">
        <ele>188.236387</ele>
        <time>2020-08-10T09:59:28.783Z</time>
      </trkpt>
      <trkpt lat="64.24053" lon="10.78574">
        <ele>197.990568</ele>
        <time>2020-08-10T10:01:01.753Z</time>
      </trkpt>
      <trkpt lat="64.23846" lon="10.78598">
        <ele>210.737217</ele>
        <time>2020-08-10T10:02:56.738Z</time>
      </trkpt>
      <trkpt lat="64.23648" lon="10.78747">
        <ele>210.184451</ele>
        <time>2020-08-10T10:04:16.734Z</time>
      </trkpt>
      <trkpt lat="64.23451" lon="10.79021">
        <ele>210.20317</ele>
        <time>2020-08-10T10:05:26.726Z</time>
      </trkpt>
      <trkpt lat="64.23243" lon="10.79135">
        <ele>216.530988</ele>
        <time>2020-08-10T10:06:27.732Z</time>
      </trkpt>
      <trkpt lat="64.23045" lon="10.79127">
        <ele>216.791494</ele>
        <time>2020-08-10T10:07:30.721Z</time>
      </trkpt>
      <trkpt lat="64.22827" lon="10.79253">
        <ele>217.833088</ele>
        <time>2020-08-10T10:08:33.720Z</time>
      </trkpt>
      <trkpt lat="64.22641" lon="10.79458">
        <ele>223.661367</ele>
        <time>2020-08-10T10:09:46.759Z</time>
      </trkpt>
      <trkpt lat="64.22635" lon="10.79911">
        <ele>223.140325</ele>
        <time>2020-08-10T10:10:52.742Z</time>
      </trkpt>
      <trkpt lat="64.22689" lon="10.80356">
        <ele>222.423513</ele>
        <time>2020-08-10T10:11:56.751Z</time>
      </trkpt>
      <trkpt lat="64.22751" lon="10.80816">
        <ele>224.871765</ele>
        <time>2020-08-10T10:13:12.730Z</time>
      </trkpt>
      <trkpt lat="64.22783" lon="10.8128">
        <ele>229.261573</ele>
        <time>2020-08-10T10:14:34.733Z</time>
      </trkpt>
      <trkpt lat="64.22865" lon="10.81735">
        <ele>234.34272</ele>
        <time>2020-08-10T10:16:03.745Z</time>
      </trkpt>
      <trkpt lat="64.22997" lon="10.82117">
        <ele>236.679673</ele>
        <time>2020-08-10T10:17:18.738Z</time>
      </trkpt>
      <trkpt lat="64.23115" lon="10.82542">
        <ele>238.552321</ele>
        <time>2020-08-10T10:18:22.725Z</time>
      </trkpt>
      <trkpt lat="64.23168" lon="10.83009">
        <ele>237.990853</ele>
        <time>2020-08-10T10:27:02.744Z</time>
      </trkpt>
      <trkpt lat="64.23219" lon="10.8346">
        <ele>234.920066</ele>
        <time>2020-08-10T10:28:15.750Z</time>
      </trkpt>
      <trkpt lat="64.23295" lon="10.83908">
        <ele>238.696891</ele>
        <time>2020-08-10T10:29:15.739Z</time>
      </trkpt>
      <trkpt lat="64.23375" lon="10.84369">
        <ele>247.04108</ele>
        <time>2020-08-10T10:30:40.726Z</time>
      </trkpt>
      <trkpt lat="64.23344" lon="10.84788">
        <ele>260.042992</ele>
        <time>2020-08-10T10:32:46.758Z</time>
      </trkpt>
      <trkpt lat="64.23203" lon="10.85186">
        <ele>265.569452</ele>
        <time>2020-08-10T10:34:08.722Z</time>
      </trkpt>
      <trkpt lat="64.23139" lon="10.85633">
        <ele>271.232749</ele>
        <time>2020-08-10T10:35:27.742Z</time>
      </trkpt>
      <trkpt lat="64.23017" lon="10.86">
        <ele>271.557286</ele>
        <time>2020-08-10T10:36:32.744Z</time>
      </trkpt>
      <trkpt lat="64.22997" lon="10.86489">
        <ele>276.885351</ele>
        <time>2020-08-10T10:37:53.743Z</time>
      </trkpt>
      <trkpt lat="64.2305" lon="10.87036">
        <ele>276.500813</ele>
        <time>2020-08-10T10:38:55.758Z</time>
      </trkpt>
      <trkpt lat="64.23061" lon="10.87535">
        <ele>278.088007</ele>
        <time>2020-08-10T10:39:57.724Z</time>
      </trkpt>
      <trkpt lat="64.23012" lon="10.88088">
        <ele>279.406706</ele>
        <time>2020-08-10T10:41:07.726Z</time>
      </trkpt>
      <trkpt lat="64.2305" lon="10.88545">
        <ele>279.895118</ele>
        <time>2020-08-10T10:42:16.736Z</time>
      </trkpt>
      <trkpt lat="64.23124" lon="10.89038">
        <ele>282.355182</ele>
        <time>2020-08-10T10:43:40.754Z</time>
      </trkpt>
      <trkpt lat="64.232" lon="10.89535">
        <ele>282.235567</ele>
        <time>2020-08-10T10:44:37.783Z</time>
      </trkpt>
      <trkpt lat="64.2327" lon="10.89992">
        <ele>285.89431</ele>
        <time>2020-08-10T10:45:32.750Z</time>
      </trkpt>
      <trkpt lat="64.23357" lon="10.90444">
        <ele>289.463731</ele>
        <time>2020-08-10T10:46:54.746Z</time>
      </trkpt>
      <trkpt lat="64.2355" lon="10.90857">
        <ele>276.405564</ele>
        <time>2020-08-10T10:47:31.725Z</time>
      </trkpt>
      <trkpt lat="64.23627" lon="10.91321">
        <ele>275.951884</ele>
        <time>2020-08-10T10:48:10.727Z</time>
      </trkpt>
      <trkpt lat="64.23699" lon="10.91765">
        <ele>275.257555</ele>
        <time>2020-08-10T10:48:58.727Z</time>
      </trkpt>
      <trkpt lat="64.23714" lon="10.92306">
        <ele>272.473557</ele>
        <time>2020-08-10T10:49:40.727Z</time>
      </trkpt>
      <trkpt lat="64.23647" lon="10.92783">
        <ele>274.25919</ele>
        <time>2020-08-10T10:50:36.737Z</time>
      </trkpt>
      <trkpt lat="64.2356" lon="10.93256">
        <ele>274.505613</ele>
        <time>2020-08-10T10:51:33.759Z</time>
      </trkpt>
      <trkpt lat="64.23454" lon="10.9377">
        <ele>265.12415</ele>
        <time>2020-08-10T10:52:04.745Z</time>
      </trkpt>
      <trkpt lat="64.23408" lon="10.94335">
        <ele>257.824157</ele>
        <time>2020-08-10T10:52:41.780Z</time>
      </trkpt>
      <trkpt lat="64.23392" lon="10.94884">
        <ele>251.948222</ele>
        <time>2020-08-10T10:53:17.749Z</time>
      </trkpt>
      <trkpt lat="64.23235" lon="10.9531">
        <ele>237.01958</ele>
        <time>2020-08-10T10:53:38.737Z</time>
      </trkpt>
      <trkpt lat="64.23124" lon="10.95849">
        <ele>224.800541</ele>
        <time>2020-08-10T10:54:08.709Z</time>
      </trkpt>
      <trkpt lat="64.2301" lon="10.96445">
        <ele>216.644071</ele>
        <time>2020-08-10T10:54:48.761Z</time>
      </trkpt>
      <trkpt lat="64.22926" lon="10.97096">
        <ele>210.662623</ele>
        <time>2020-08-10T10:55:28.753Z</time>
      </trkpt>
      <trkpt lat="64.22854" lon="10.97576">
        <ele>199.607888</ele>
        <time>2020-08-10T10:55:54.732Z</time>
      </trkpt>
      <trkpt lat="64.22614" lon="10.97772">
        <ele>182.744579</ele>
        <time>2020-08-10T10:56:15.751Z</time>
      </trkpt>
      <trkpt lat="64.22465" lon="10.98187">
        <ele>173.112802</ele>
        <time>2020-08-10T10:56:42.743Z</time>
      </trkpt>
      <trkpt lat="64.22441" lon="10.98706">
        <ele>169.996888</ele>
        <time>2020-08-10T10:57:13.735Z</time>
      </trkpt>
      <trkpt lat="64.22449" lon="10.99262">
        <ele>164.47833</ele>
        <time>2020-08-10T10:57:44.739Z</time>
      </trkpt>
      <trkpt lat="64.22603" lon="10.99568">
        <ele>168.186827</ele>
        <time>2020-08-10T10:58:59.745Z</time>
      </trkpt>
      <trkpt lat="64.22739" lon="10.99954">
        <ele>172.990635</ele>
        <time>2020-08-10T10:59:58.748Z</time>
      </trkpt>
      <trkpt lat="64.2281" lon="11.00416">
        <ele>178.576501</ele>
        <time>2020-08-10T11:01:11.759Z</time>
      </trkpt>
      <trkpt lat="64.22786" lon="11.00907">
        <ele>179.20285</ele>
        <time>2020-08-10T11:02:19.784Z</time>
      </trkpt>
      <trkpt lat="64.22754" lon="11.01424">
        <ele>168.927251</ele>
        <time>2020-08-10T11:02:40.737Z</time>
      </trkpt>
      <trkpt lat="64.22731" lon="11.01932">
        <ele>163.687569</ele>
        <time>2020-08-10T11:03:20.758Z</time>
      </trkpt>
      <trkpt lat="64.22716" lon="11.02412">
        <ele>177.62876</ele>
        <time>2020-08-10T11:04:46.773Z</time>
      </trkpt>
      <trkpt lat="64.22752" lon="11.02879">
        <ele>179.456396</ele>
        <time>2020-08-10T11:06:10.780Z</time>
      </trkpt>
      <trkpt lat="64.2293" lon="11.03466">
        <ele>167.918122</ele>
        <time>2020-08-10T11:06:50.743Z</time>
      </trkpt>
      <trkpt lat="64.23061" lon="11.03942">
        <ele>168.413823</ele>
        <time>2020-08-10T11:07:53.746Z</time>
      </trkpt>
      <trkpt lat="64.23172" lon="11.0435">
        <ele>171.833619</ele>
        <time>2020-08-10T11:09:10.731Z</time>
      </trkpt>
      <trkpt lat="64.23288" lon="11.04795">
        <ele>165.879049</ele>
        <time>2020-08-10T11:09:48.738Z</time>
      </trkpt>
      <trkpt lat="64.23456" lon="11.0513">
        <ele>155.33308</ele>
        <time>2020-08-10T11:10:12.743Z</time>
      </trkpt>
      <trkpt lat="64.23642" lon="11.05476">
        <ele>151.753513</ele>
        <time>2020-08-10T11:10:54.741Z</time>
      </trkpt>
      <trkpt lat="64.23769" lon="11.05836">
        <ele>154.177764</ele>
        <time>2020-08-10T11:11:34.725Z</time>
      </trkpt>
      <trkpt lat="64.23973" lon="11.05863">
        <ele>162.103079</ele>
        <time>2020-08-10T11:12:40.762Z</time>
      </trkpt>
      <trkpt lat="64.24058" lon="11.06262">
        <ele>170.235201</ele>
        <time>2020-08-10T11:14:32.738Z</time>
      </trkpt>
      <trkpt lat="64.24123" lon="11.06697">
        <ele>173.96527</ele>
        <time>2020-08-10T11:16:11.721Z</time>
      </trkpt>
      <trkpt lat="64.24215" lon="11.07311">
        <ele>170.104692</ele>
        <time>2020-08-10T11:16:53.722Z</time>
      </trkpt>
      <trkpt lat="64.24335" lon="11.07903">
        <ele>158.044746</ele>
        <time>2020-08-10T11:17:35.744Z</time>
      </trkpt>
      <trkpt lat="64.24438" lon="11.08424">
        <ele>147.079295</ele>
        <time>2020-08-10T11:18:15.766Z</time>
      </trkpt>
      <trkpt lat="64.24587" lon="11.08785">
        <ele>152.60028</ele>
        <time>2020-08-10T11:19:02.737Z</time>
      </trkpt>
      <trkpt lat="64.24602" lon="11.09208">
        <ele>160.43017</ele>
        <time>2020-08-10T11:20:21.790Z</time>
      </trkpt>
      <trkpt lat="64.24524" lon="11.09531">
        <ele>171.874678</ele>
        <time>2020-08-10T11:22:01.768Z</time>
      </trkpt>
      <trkpt lat="64.24668" lon="11.09896">
        <ele>181.932661</ele>
        <time>2020-08-10T11:23:12.730Z</time>
      </trkpt>
      <trkpt lat="64.24595" lon="11.1032">
        <ele>175.630012</ele>
        <time>2020-08-10T11:24:29.728Z</time>
      </trkpt>
      <trkpt lat="64.24713" lon="11.10554">
        <ele>162.266839</ele>
        <time>2020-08-10T11:27:39.730Z</time>
      </trkpt>
      <trkpt lat="64.24793" lon="11.10801">
        <ele>165.155003</ele>
        <time>2020-08-10T11:29:32.760Z</time>
      </trkpt>
      <trkpt lat="64.24817" lon="11.1127">
        <ele>167.693598</ele>
        <time>2020-08-10T11:32:52.735Z</time>
      </trkpt>
      <trkpt lat="64.24878" lon="11.11761">
        <ele>173.616477</ele>
        <time>2020-08-10T11:33:51.757Z</time>
      </trkpt>
      <trkpt lat="64.24928" lon="11.12251">
        <ele>175.933196</ele>
        <time>2020-08-10T11:34:54.747Z</time>
      </trkpt>
      <trkpt lat="64.24963" lon="11.12695">
        <ele>176.178553</ele>
        <time>2020-08-10T11:36:08.753Z</time>
      </trkpt>
      <trkpt lat="64.25003" lon="11.13146">
        <ele>168.282154</ele>
        <time>2020-08-10T11:37:30.750Z</time>
      </trkpt>
      <trkpt lat="64.2494" lon="11.1369">
        <ele>160.824045</ele>
        <time>2020-08-10T11:38:17.755Z</time>
      </trkpt>
      <trkpt lat="64.24927" lon="11.1418">
        <ele>161.337291</ele>
        <time>2020-08-10T11:39:36.798Z</time>
      </trkpt>
      <trkpt lat="64.24989" lon="11.14654">
        <ele>146.964092</ele>
        <time>2020-08-10T11:40:31.763Z</time>
      </trkpt>
      <trkpt lat="64.25074" lon="11.15102">
        <ele>129.49208</ele>
        <time>2020-08-10T11:41:17.745Z</time>
      </trkpt>
      <trkpt lat="64.25058" lon="11.15611">
        <ele>123.581022</ele>
        <time>2020-08-10T11:42:15.767Z</time>
      </trkpt>
      <trkpt lat="64.25008" lon="11.16132">
        <ele>117.399421</ele>
        <time>2020-08-10T11:43:05.749Z</time>
      </trkpt>
      <trkpt lat="64.25035" lon="11.16624">
        <ele>108.53076</ele>
        <time>2020-08-10T11:43:52.738Z</time>
      </trkpt>
      <trkpt lat="64.25113" lon="11.17175">
        <ele>98.683834</ele>
        <time>2020-08-10T11:44:32.736Z</time>
      </trkpt>
      <trkpt lat="64.25098" lon="11.1768">
        <ele>92.575475</ele>
        <time>2020-08-10T11:45:28.736Z</time>
      </trkpt>
      <trkpt lat="64.24984" lon="11.18198">
        <ele>84.368377</ele>
        <time>2020-08-10T11:46:18.738Z</time>
      </trkpt>
      <trkpt lat="64.25035" lon="11.18638">
        <ele>81.341063</ele>
        <time>2020-08-10T11:46:58.753Z</time>
      </trkpt>
      <trkpt lat="64.25234" lon="11.18754">
        <ele>78.843477</ele>
        <time>2020-08-10T11:47:38.736Z</time>
      </trkpt>
      <trkpt lat="64.25474" lon="11.18832">
        <ele>65.51066</ele>
        <time>2020-08-10T11:48:03.723Z</time>
      </trkpt>
      <trkpt lat="64.25664" lon="11.18757">
        <ele>57.714651</ele>
        <time>2020-08-10T11:48:23.734Z</time>
      </trkpt>
      <trkpt lat="64.25859" lon="11.18964">
        <ele>59.607511</ele>
        <time>2020-08-10T11:48:58.727Z</time>
      </trkpt>
      <trkpt lat="64.2607" lon="11.19103">
        <ele>70.799886</ele>
        <time>2020-08-10T11:50:15.742Z</time>
      </trkpt>
      <trkpt lat="64.26125" lon="11.19576">
        <ele>65.286271</ele>
        <time>2020-08-10T11:51:11.777Z</time>
      </trkpt>
      <trkpt lat="64.26254" lon="11.19735">
        <ele>61.591024</ele>
        <time>2020-08-10T11:51:55.758Z</time>
      </trkpt>
      <trkpt lat="64.26514" lon="11.19611">
        <ele>57.142432</ele>
        <time>2020-08-10T11:52:35.755Z</time>
      </trkpt>
      <trkpt lat="64.26751" lon="11.195">
        <ele>54.292109</ele>
        <time>2020-08-10T11:53:15.730Z</time>
      </trkpt>
      <trkpt lat="64.26973" lon="11.19395">
        <ele>55.620283</ele>
        <time>2020-08-10T11:53:57.732Z</time>
      </trkpt>
      <trkpt lat="64.27196" lon="11.19314">
        <ele>55.33162</ele>
        <time>2020-08-10T11:54:37.735Z</time>
      </trkpt>
      <trkpt lat="64.27466" lon="11.19338">
        <ele>48.127085</ele>
        <time>2020-08-10T11:55:17.744Z</time>
      </trkpt>
      <trkpt lat="64.27674" lon="11.19368">
        <ele>49.1026</ele>
        <time>2020-08-10T11:55:57.733Z</time>
      </trkpt>
      <trkpt lat="64.27895" lon="11.19474">
        <ele>51.64407</ele>
        <time>2020-08-10T11:56:49.757Z</time>
      </trkpt>
      <trkpt lat="64.28095" lon="11.19501">
        <ele>52.513368</ele>
        <time>2020-08-10T11:57:31.761Z</time>
      </trkpt>
      <trkpt lat="64.28318" lon="11.19459">
        <ele>54.257674</ele>
        <time>2020-08-10T11:58:35.734Z</time>
      </trkpt>
      <trkpt lat="64.28534" lon="11.1943">
        <ele>53.320046</ele>
        <time>2020-08-10T11:59:29.740Z</time>
      </trkpt>
      <trkpt lat="64.28761" lon="11.19553">
        <ele>46.976158</ele>
        <time>2020-08-10T12:00:09.727Z</time>
      </trkpt>
      <trkpt lat="64.28972" lon="11.19727">
        <ele>45.331678</ele>
        <time>2020-08-10T12:00:49.756Z</time>
      </trkpt>
      <trkpt lat="64.29186" lon="11.19867">
        <ele>44.268722</ele>
        <time>2020-08-10T12:01:29.750Z</time>
      </trkpt>
      <trkpt lat="64.29381" lon="11.20024">
        <ele>43.807625</ele>
        <time>2020-08-10T12:02:09.752Z</time>
      </trkpt>
      <trkpt lat="64.29564" lon="11.20361">
        <ele>40.458656</ele>
        <time>2020-08-10T12:02:51.768Z</time>
      </trkpt>
      <trkpt lat="64.2973" lon="11.20713">
        <ele>39.267447</ele>
        <time>2020-08-10T12:03:31.736Z</time>
      </trkpt>
      <trkpt lat="64.29878" lon="11.21037">
        <ele>38.374933</ele>
        <time>2020-08-10T12:04:11.736Z</time>
      </trkpt>
      <trkpt lat="64.3008" lon="11.21293">
        <ele>39.931694</ele>
        <time>2020-08-10T12:05:01.723Z</time>
      </trkpt>
      <trkpt lat="64.30271" lon="11.21555">
        <ele>35.918292</ele>
        <time>2020-08-10T12:05:41.740Z</time>
      </trkpt>
      <trkpt lat="64.3046" lon="11.21787">
        <ele>35.864351</ele>
        <time>2020-08-10T12:06:23.763Z</time>
      </trkpt>
      <trkpt lat="64.30649" lon="11.22014">
        <ele>33.054972</ele>
        <time>2020-08-10T12:07:03.751Z</time>
      </trkpt>
      <trkpt lat="64.30828" lon="11.22229">
        <ele>33.652843</ele>
        <time>2020-08-10T12:07:43.726Z</time>
      </trkpt>
      <trkpt lat="64.31023" lon="11.22471">
        <ele>36.634035</ele>
        <time>2020-08-10T12:08:36.732Z</time>
      </trkpt>
      <trkpt lat="64.31219" lon="11.22705">
        <ele>39.529473</ele>
        <time>2020-08-10T12:09:28.735Z</time>
      </trkpt>
      <trkpt lat="64.31366" lon="11.23148">
        <ele>40.785277</ele>
        <time>2020-08-10T12:10:09.739Z</time>
      </trkpt>
      <trkpt lat="64.31522" lon="11.23544">
        <ele>34.996546</ele>
        <time>2020-08-10T12:10:51.736Z</time>
      </trkpt>
      <trkpt lat="64.31706" lon="11.23735">
        <ele>39.362339</ele>
        <time>2020-08-10T12:11:38.741Z</time>
      </trkpt>
      <trkpt lat="64.31896" lon="11.239">
        <ele>54.925841</ele>
        <time>2020-08-10T12:13:07.739Z</time>
      </trkpt>
      <trkpt lat="64.32099" lon="11.23941">
        <ele>57.711917</ele>
        <time>2020-08-10T12:14:31.758Z</time>
      </trkpt>
      <trkpt lat="64.32284" lon="11.24245">
        <ele>52.351091</ele>
        <time>2020-08-10T12:15:04.748Z</time>
      </trkpt>
      <trkpt lat="64.32483" lon="11.24489">
        <ele>48.401554</ele>
        <time>2020-08-10T12:15:34.725Z</time>
      </trkpt>
      <trkpt lat="64.32671" lon="11.24872">
        <ele>47.757362</ele>
        <time>2020-08-10T12:16:37.737Z</time>
      </trkpt>
      <trkpt lat="64.32897" lon="11.25009">
        <ele>52.766458</ele>
        <time>2020-08-10T12:17:32.744Z</time>
      </trkpt>
      <trkpt lat="64.33101" lon="11.25052">
        <ele>52.14801</ele>
        <time>2020-08-10T12:18:16.737Z</time>
      </trkpt>
      <trkpt lat="64.33316" lon="11.25067">
        <ele>54.890774</ele>
        <time>2020-08-10T12:19:16.757Z</time>
      </trkpt>
      <trkpt lat="64.33493" lon="11.25233">
        <ele>64.158269</ele>
        <time>2020-08-10T12:20:25.748Z</time>
      </trkpt>
      <trkpt lat="64.33616" lon="11.25638">
        <ele>67.603217</ele>
        <time>2020-08-10T12:21:47.738Z</time>
      </trkpt>
      <trkpt lat="64.33774" lon="11.25943">
        <ele>72.550944</ele>
        <time>2020-08-10T12:22:54.739Z</time>
      </trkpt>
      <trkpt lat="64.33862" lon="11.26438">
        <ele>66.727607</ele>
        <time>2020-08-10T12:23:23.734Z</time>
      </trkpt>
      <trkpt lat="64.33926" lon="11.26924">
        <ele>58.632378</ele>
        <time>2020-08-10T12:24:07.738Z</time>
      </trkpt>
      <trkpt lat="64.3398" lon="11.27371">
        <ele>66.902067</ele>
        <time>2020-08-10T12:25:27.738Z</time>
      </trkpt>
      <trkpt lat="64.34" lon="11.27816">
        <ele>77.293081</ele>
        <time>2020-08-10T12:26:48.792Z</time>
      </trkpt>
      <trkpt lat="64.33996" lon="11.28327">
        <ele>81.57264</ele>
        <time>2020-08-10T12:28:08.731Z</time>
      </trkpt>
      <trkpt lat="64.3413" lon="11.28699">
        <ele>79.31105</ele>
        <time>2020-08-10T12:29:23.753Z</time>
      </trkpt>
      <trkpt lat="64.3433" lon="11.28927">
        <ele>72.778568</ele>
        <time>2020-08-10T12:30:05.756Z</time>
      </trkpt>
      <trkpt lat="64.34547" lon="11.28891">
        <ele>63.107913</ele>
        <time>2020-08-10T12:30:52.741Z</time>
      </trkpt>
      <trkpt lat="64.34763" lon="11.28983">
        <ele>65.716621</ele>
        <time>2020-08-10T12:31:36.734Z</time>
      </trkpt>
      <trkpt lat="64.34948" lon="11.29216">
        <ele>67.701688</ele>
        <time>2020-08-10T12:32:22.731Z</time>
      </trkpt>
      <trkpt lat="64.35148" lon="11.29449">
        <ele>82.253434</ele>
        <time>2020-08-10T12:33:39.743Z</time>
      </trkpt>
      <trkpt lat="64.3534" lon="11.29546">
        <ele>96.020679</ele>
        <time>2020-08-10T12:35:26.748Z</time>
      </trkpt>
      <trkpt lat="64.35529" lon="11.29649">
        <ele>101.928403</ele>
        <time>2020-08-10T12:37:05.752Z</time>
      </trkpt>
      <trkpt lat="64.35751" lon="11.29956">
        <ele>86.733297</ele>
        <time>2020-08-10T12:37:50.747Z</time>
      </trkpt>
      <trkpt lat="64.3586" lon="11.30334">
        <ele>78.271749</ele>
        <time>2020-08-10T12:38:10.738Z</time>
      </trkpt>
      <trkpt lat="64.36028" lon="11.30936">
        <ele>66.156382</ele>
        <time>2020-08-10T12:38:51.732Z</time>
      </trkpt>
      <trkpt lat="64.36196" lon="11.31333">
        <ele>52.302396</ele>
        <time>2020-08-10T12:39:16.784Z</time>
      </trkpt>
      <trkpt lat="64.36399" lon="11.3167">
        <ele>45.44981</ele>
        <time>2020-08-10T12:39:49.737Z</time>
      </trkpt>
      <trkpt lat="64.36564" lon="11.32022">
        <ele>42.381764</ele>
        <time>2020-08-10T12:40:27.736Z</time>
      </trkpt>
      <trkpt lat="64.36614" lon="11.32533">
        <ele>43.082864</ele>
        <time>2020-08-10T12:41:00.745Z</time>
      </trkpt>
      <trkpt lat="64.36561" lon="11.3302">
        <ele>50.234408</ele>
        <time>2020-08-10T12:42:00.730Z</time>
      </trkpt>
      <trkpt lat="64.36445" lon="11.33421">
        <ele>60.669732</ele>
        <time>2020-08-10T12:43:33.757Z</time>
      </trkpt>
      <trkpt lat="64.36414" lon="11.33881">
        <ele>65.64398</ele>
        <time>2020-08-10T12:44:58.753Z</time>
      </trkpt>
      <trkpt lat="64.3644" lon="11.34348">
        <ele>71.62875</ele>
        <time>2020-08-10T12:46:24.747Z</time>
      </trkpt>
      <trkpt lat="64.3656" lon="11.34756">
        <ele>68.93628</ele>
        <time>2020-08-10T12:47:11.729Z</time>
      </trkpt>
      <trkpt lat="64.36705" lon="11.35142">
        <ele>65.607802</ele>
        <time>2020-08-10T12:47:51.759Z</time>
      </trkpt>
      <trkpt lat="64.36864" lon="11.35575">
        <ele>63.997392</ele>
        <time>2020-08-10T12:48:31.769Z</time>
      </trkpt>
      <trkpt lat="64.37019" lon="11.36009">
        <ele>62.885778</ele>
        <time>2020-08-10T12:49:13.741Z</time>
      </trkpt>
      <trkpt lat="64.37182" lon="11.36433">
        <ele>60.126042</ele>
        <time>2020-08-10T12:49:56.762Z</time>
      </trkpt>
      <trkpt lat="64.37356" lon="11.36907">
        <ele>52.111781</ele>
        <time>2020-08-10T12:50:36.745Z</time>
      </trkpt>
      <trkpt lat="64.37528" lon="11.37259">
        <ele>46.717996</ele>
        <time>2020-08-10T12:51:05.749Z</time>
      </trkpt>
      <trkpt lat="64.37693" lon="11.37607">
        <ele>52.936321</ele>
        <time>2020-08-10T12:52:05.753Z</time>
      </trkpt>
      <trkpt lat="64.37908" lon="11.37719">
        <ele>48.410742</ele>
        <time>2020-08-10T12:53:10.754Z</time>
      </trkpt>
      <trkpt lat="64.37934" lon="11.38097">
        <ele>44.848187</ele>
        <time>2020-08-10T12:53:59.730Z</time>
      </trkpt>
      <trkpt lat="64.3791" lon="11.38574">
        <ele>51.696108</ele>
        <time>2020-08-10T12:54:58.766Z</time>
      </trkpt>
      <trkpt lat="64.38055" lon="11.38813">
        <ele>47.033577</ele>
        <time>2020-08-10T12:55:56.734Z</time>
      </trkpt>
      <trkpt lat="64.38059" lon="11.3925">
        <ele>53.945598</ele>
        <time>2020-08-10T12:57:09.739Z</time>
      </trkpt>
      <trkpt lat="64.38251" lon="11.39555">
        <ele>50.381758</ele>
        <time>2020-08-10T13:08:42.736Z</time>
      </trkpt>
      <trkpt lat="64.38439" lon="11.39899">
        <ele>45.217822</ele>
        <time>2020-08-10T13:09:36.763Z</time>
      </trkpt>
      <trkpt lat="64.38654" lon="11.39936">
        <ele>42.663891</ele>
        <time>2020-08-10T13:10:25.755Z</time>
      </trkpt>
      <trkpt lat="64.38879" lon="11.3999">
        <ele>41.666952</ele>
        <time>2020-08-10T13:11:18.737Z</time>
      </trkpt>
      <trkpt lat="64.39095" lon="11.40038">
        <ele>52.875811</ele>
        <time>2020-08-10T13:12:31.759Z</time>
      </trkpt>
      <trkpt lat="64.39291" lon="11.40159">
        <ele>58.154752</ele>
        <time>2020-08-10T13:13:48.736Z</time>
      </trkpt>
      <trkpt lat="64.39504" lon="11.4027">
        <ele>55.077787</ele>
        <time>2020-08-10T13:14:28.753Z</time>
      </trkpt>
      <trkpt lat="64.39688" lon="11.40476">
        <ele>54.101288</ele>
        <time>2020-08-10T13:15:11.746Z</time>
      </trkpt>
      <trkpt lat="64.3987" lon="11.40735">
        <ele>63.51564</ele>
        <time>2020-08-10T13:16:26.754Z</time>
      </trkpt>
      <trkpt lat="64.40005" lon="11.41079">
        <ele>72.886737</ele>
        <time>2020-08-10T13:17:48.757Z</time>
      </trkpt>
      <trkpt lat="64.40017" lon="11.41547">
        <ele>78.819112</ele>
        <time>2020-08-10T13:19:19.762Z</time>
      </trkpt>
      <trkpt lat="64.40068" lon="11.42015">
        <ele>77.362246</ele>
        <time>2020-08-10T13:20:24.735Z</time>
      </trkpt>
      <trkpt lat="64.40151" lon="11.42474">
        <ele>79.224267</ele>
        <time>2020-08-10T13:21:18.735Z</time>
      </trkpt>
      <trkpt lat="64.40238" lon="11.42942">
        <ele>85.170486</ele>
        <time>2020-08-10T13:22:38.738Z</time>
      </trkpt>
      <trkpt lat="64.40349" lon="11.43372">
        <ele>84.331379</ele>
        <time>2020-08-10T13:23:27.753Z</time>
      </trkpt>
      <trkpt lat="64.40436" lon="11.43884">
        <ele>85.423582</ele>
        <time>2020-08-10T13:24:26.766Z</time>
      </trkpt>
      <trkpt lat="64.40505" lon="11.44343">
        <ele>91.963824</ele>
        <time>2020-08-10T13:25:30.764Z</time>
      </trkpt>
      <trkpt lat="64.40539" lon="11.44829">
        <ele>99.363494</ele>
        <time>2020-08-10T13:26:50.742Z</time>
      </trkpt>
      <trkpt lat="64.40554" lon="11.45346">
        <ele>98.426624</ele>
        <time>2020-08-10T13:28:02.747Z</time>
      </trkpt>
      <trkpt lat="64.4057" lon="11.45905">
        <ele>95.534809</ele>
        <time>2020-08-10T13:28:42.751Z</time>
      </trkpt>
      <trkpt lat="64.40566" lon="11.46452">
        <ele>94.380179</ele>
        <time>2020-08-10T13:29:22.741Z</time>
      </trkpt>
      <trkpt lat="64.40648" lon="11.46977">
        <ele>90.672737</ele>
        <time>2020-08-10T13:30:02.725Z</time>
      </trkpt>
      <trkpt lat="64.40769" lon="11.47357">
        <ele>93.994351</ele>
        <time>2020-08-10T13:31:12.755Z</time>
      </trkpt>
      <trkpt lat="64.40891" lon="11.47733">
        <ele>99.425083</ele>
        <time>2020-08-10T13:32:36.754Z</time>
      </trkpt>
      <trkpt lat="64.41068" lon="11.48043">
        <ele>96.839817</ele>
        <time>2020-08-10T13:33:23.741Z</time>
      </trkpt>
      <trkpt lat="64.41237" lon="11.48343">
        <ele>98.484571</ele>
        <time>2020-08-10T13:34:21.778Z</time>
      </trkpt>
      <trkpt lat="64.4141" lon="11.48598">
        <ele>102.463338</ele>
        <time>2020-08-10T13:35:33.746Z</time>
      </trkpt>
      <trkpt lat="64.41597" lon="11.48859">
        <ele>104.880977</ele>
        <time>2020-08-10T13:36:53.745Z</time>
      </trkpt>
      <trkpt lat="64.41807" lon="11.48958">
        <ele>106.265046</ele>
        <time>2020-08-10T13:37:55.746Z</time>
      </trkpt>
      <trkpt lat="64.42022" lon="11.48954">
        <ele>107.772499</ele>
        <time>2020-08-10T13:39:05.776Z</time>
      </trkpt>
      <trkpt lat="64.42235" lon="11.49072">
        <ele>112.220341</ele>
        <time>2020-08-10T13:40:10.756Z</time>
      </trkpt>
      <trkpt lat="64.42465" lon="11.49005">
        <ele>103.481941</ele>
        <time>2020-08-10T13:40:54.738Z</time>
      </trkpt>
      <trkpt lat="64.42706" lon="11.48912">
        <ele>94.843466</ele>
        <time>2020-08-10T13:41:34.761Z</time>
      </trkpt>
      <trkpt lat="64.42965" lon="11.49073">
        <ele>85.955547</ele>
        <time>2020-08-10T13:42:14.739Z</time>
      </trkpt>
      <trkpt lat="64.43154" lon="11.49498">
        <ele>73.529792</ele>
        <time>2020-08-10T13:42:47.725Z</time>
      </trkpt>
      <trkpt lat="64.43304" lon="11.49861">
        <ele>72.23686</ele>
        <time>2020-08-10T13:43:28.746Z</time>
      </trkpt>
      <trkpt lat="64.43466" lon="11.50121">
        <ele>81.111517</ele>
        <time>2020-08-10T13:45:13.785Z</time>
      </trkpt>
      <trkpt lat="64.43662" lon="11.50389">
        <ele>80.103259</ele>
        <time>2020-08-10T13:46:00.739Z</time>
      </trkpt>
      <trkpt lat="64.4378" lon="11.50744">
        <ele>91.282937</ele>
        <time>2020-08-10T13:47:45.747Z</time>
      </trkpt>
      <trkpt lat="64.43905" lon="11.51117">
        <ele>95.63669</ele>
        <time>2020-08-10T13:49:17.733Z</time>
      </trkpt>
      <trkpt lat="64.44023" lon="11.51636">
        <ele>82.894373</ele>
        <time>2020-08-10T13:49:57.740Z</time>
      </trkpt>
      <trkpt lat="64.44285" lon="11.52107">
        <ele>65.472074</ele>
        <time>2020-08-10T13:50:37.741Z</time>
      </trkpt>
      <trkpt lat="64.44513" lon="11.52012">
        <ele>53.908654</ele>
        <time>2020-08-10T13:51:11.737Z</time>
      </trkpt>
      <trkpt lat="64.447" lon="11.52295">
        <ele>44.846601</ele>
        <time>2020-08-10T13:51:57.725Z</time>
      </trkpt>
      <trkpt lat="64.44964" lon="11.5233">
        <ele>38.543191</ele>
        <time>2020-08-10T13:52:37.746Z</time>
      </trkpt>
      <trkpt lat="64.45169" lon="11.52223">
        <ele>36.081981</ele>
        <time>2020-08-10T13:53:17.744Z</time>
      </trkpt>
      <trkpt lat="64.45367" lon="11.52212">
        <ele>37.458856</ele>
        <time>2020-08-10T13:53:57.726Z</time>
      </trkpt>
      <trkpt lat="64.4552" lon="11.52539">
        <ele>38.915977</ele>
        <time>2020-08-10T13:54:39.722Z</time>
      </trkpt>
      <trkpt lat="64.45667" lon="11.52791">
        <ele>39.249281</ele>
        <time>2020-08-10T13:55:33.730Z</time>
      </trkpt>
      <trkpt lat="64.45843" lon="11.52457">
        <ele>38.301419</ele>
        <time>2020-08-10T13:56:34.758Z</time>
      </trkpt>
      <trkpt lat="64.46039" lon="11.52246">
        <ele>44.327058</ele>
        <time>2020-08-10T13:57:42.743Z</time>
      </trkpt>
      <trkpt lat="64.46235" lon="11.52087">
        <ele>49.141851</ele>
        <time>2020-08-10T13:58:54.746Z</time>
      </trkpt>
      <trkpt lat="64.46449" lon="11.51905">
        <ele>41.250379</ele>
        <time>2020-08-10T13:59:42.789Z</time>
      </trkpt>
      <trkpt lat="64.46583" lon="11.51555">
        <ele>37.684635</ele>
        <time>2020-08-10T14:00:23.751Z</time>
      </trkpt>
      <trkpt lat="64.46624" lon="11.51116">
        <ele>38.405739</ele>
        <time>2020-08-10T14:01:03.750Z</time>
      </trkpt>
      <trkpt lat="64.4665" lon="11.50644">
        <ele>37.463153</ele>
        <time>2020-08-10T14:02:03.757Z</time>
      </trkpt>
      <trkpt lat="64.46505" lon="11.5042">
        <ele>43.095345</ele>
        <time>2020-08-10T14:02:59.743Z</time>
      </trkpt>
      <trkpt lat="64.46527" lon="11.50166">
        <ele>46.350402</ele>
        <time>2020-08-10T14:04:26.745Z</time>
      </trkpt>
      <trkpt lat="64.46641" lon="11.50188">
        <ele>44.285383</ele>
        <time>2020-08-10T14:19:58.740Z</time>
      </trkpt>
      <trkpt lat="64.4666" lon="11.5075">
        <ele>55.508649</ele>
        <time>2020-08-10T14:20:58.736Z</time>
      </trkpt>
      <trkpt lat="64.46719" lon="11.50624">
        <ele>43.10356</ele>
        <time>2020-08-10T14:22:05.748Z</time>
      </trkpt>
      <trkpt lat="64.46765" lon="11.50739">
        <ele>41.011457</ele>
        <time>2020-08-10T14:28:52.734Z</time>
      </trkpt>
      <trkpt lat="64.46851" lon="11.51069">
        <ele>44.37636</ele>
        <time>2020-08-10T14:52:14.752Z</time>
      </trkpt>
      <trkpt lat="64.46908" lon="11.51508">
        <ele>53.486866</ele>
        <time>2020-08-10T14:53:51.769Z</time>
      </trkpt>
      <trkpt lat="64.46964" lon="11.51963">
        <ele>61.566278</ele>
        <time>2020-08-10T14:55:38.779Z</time>
      </trkpt>
      <trkpt lat="64.4707" lon="11.52355">
        <ele>57.152975</ele>
        <time>2020-08-10T14:56:49.793Z</time>
      </trkpt>
      <trkpt lat="64.47172" lon="11.52832">
        <ele>45.145755</ele>
        <time>2020-08-10T14:57:31.760Z</time>
      </trkpt>
      <trkpt lat="64.47163" lon="11.53303">
        <ele>43.294314</ele>
        <time>2020-08-10T14:58:16.767Z</time>
      </trkpt>
      <trkpt lat="64.47109" lon="11.53786">
        <ele>49.54899</ele>
        <time>2020-08-10T14:59:17.783Z</time>
      </trkpt>
      <trkpt lat="64.47036" lon="11.54238">
        <ele>58.883192</ele>
        <time>2020-08-10T15:00:49.783Z</time>
      </trkpt>
      <trkpt lat="64.47096" lon="11.54689">
        <ele>60.502964</ele>
        <time>2020-08-10T15:02:08.744Z</time>
      </trkpt>
      <trkpt lat="64.47072" lon="11.55213">
        <ele>53.015582</ele>
        <time>2020-08-10T15:03:07.739Z</time>
      </trkpt>
      <trkpt lat="64.47176" lon="11.55681">
        <ele>47.128696</ele>
        <time>2020-08-10T15:03:33.738Z</time>
      </trkpt>
      <trkpt lat="64.47273" lon="11.56139">
        <ele>42.637081</ele>
        <time>2020-08-10T15:04:13.735Z</time>
      </trkpt>
      <trkpt lat="64.47384" lon="11.56579">
        <ele>45.205548</ele>
        <time>2020-08-10T15:05:02.735Z</time>
      </trkpt>
      <trkpt lat="64.47318" lon="11.56988">
        <ele>43.050997</ele>
        <time>2020-08-10T15:05:49.731Z</time>
      </trkpt>
      <trkpt lat="64.47296" lon="11.5738">
        <ele>40.263253</ele>
        <time>2020-08-10T15:06:29.737Z</time>
      </trkpt>
      <trkpt lat="64.47383" lon="11.57791">
        <ele>37.877687</ele>
        <time>2020-08-10T15:07:13.746Z</time>
      </trkpt>
    </trkseg>
  </trk>
</gpx>